createdAt,value
2022-11-28T00:01:54.529Z,100042.91
2022-11-28T00:04:24.468Z,100033.44
2022-11-28T00:06:54.441Z,100029.13
2022-11-28T00:09:23.307Z,100034.34
2022-11-28T00:11:52.224Z,100038.59
2022-11-28T00:14:21.480Z,100020.59
2022-11-28T00:16:50.246Z,100027.44
2022-11-28T00:19:18.654Z,100030.81
2022-11-28T00:21:48.391Z,100018.78
2022-11-28T00:24:16.702Z,100029.19
2022-11-28T00:26:45.098Z,100016.34
2022-11-28T00:29:13.455Z,100015.34
2022-11-28T00:31:44.049Z,100005.00
2022-11-28T00:34:14.741Z,99997.25
2022-11-28T00:36:45.285Z,100002.41
2022-11-28T00:39:15.808Z,99998.97
2022-11-28T00:41:45.491Z,99995.59
2022-11-28T00:44:14.594Z,99986.91
2022-11-28T00:46:43.170Z,99982.66
2022-11-28T00:49:11.625Z,99992.97
2022-11-28T00:51:40.198Z,99999.84
2022-11-28T00:54:08.979Z,99992.03
2022-11-28T00:56:41.397Z,99989.53
2022-11-28T00:59:09.843Z,99999.78
2022-11-28T01:01:40.914Z,100006.66
2022-11-28T01:04:12.359Z,100004.16
2022-11-28T01:06:44.256Z,100007.53
2022-11-28T01:09:15.778Z,100001.56
2022-11-28T01:11:49.040Z,100010.94
2022-11-28T01:14:20.261Z,100007.50
2022-11-28T01:16:48.940Z,100013.50
2022-11-28T01:19:17.519Z,100010.94
2022-11-28T01:21:46.050Z,99994.72
2022-11-28T01:24:15.165Z,99989.53
2022-11-28T01:26:45.378Z,99993.81
2022-11-28T01:29:14.149Z,99995.56
2022-11-28T01:31:42.619Z,99989.56
2022-11-28T01:34:11.382Z,99995.53
2022-11-28T01:36:39.744Z,99993.03
2022-11-28T01:39:08.317Z,99980.25
2022-11-28T01:41:36.822Z,99978.44
2022-11-28T01:44:48.168Z,99971.50
2022-11-28T01:47:19.584Z,99960.38
2022-11-28T01:49:50.259Z,99956.94
2022-11-28T01:52:21.131Z,99944.91
2022-11-28T01:54:54.690Z,99946.59
2022-11-28T01:57:26.113Z,99938.03
2022-11-28T02:00:02.634Z,99937.16
2022-11-28T02:02:44.824Z,99943.13
2022-11-28T02:05:14.640Z,99929.47
2022-11-28T02:07:45.323Z,99933.81
2022-11-28T02:10:21.202Z,99942.31
2022-11-28T02:13:12.938Z,99932.94
2022-11-28T02:16:04.578Z,99921.72
2022-11-28T02:18:50.554Z,99920.88
2022-11-28T02:21:33.758Z,99912.25
2022-11-28T02:24:41.404Z,99908.91
2022-11-28T02:27:59.169Z,99904.59
2022-11-28T02:30:35.143Z,99919.19
2022-11-28T02:33:19.050Z,99920.91
2022-11-28T02:36:00.563Z,99919.25
2022-11-28T02:38:54.133Z,99918.34
2022-11-28T02:41:31.718Z,99914.03
2022-11-28T02:44:11.275Z,99914.00
2022-11-28T02:46:48.913Z,99908.91
2022-11-28T02:49:24.585Z,99909.72
2022-11-28T02:51:58.503Z,99903.78
2022-11-28T02:54:28.828Z,99902.94
2022-11-28T02:56:57.301Z,99896.88
2022-11-28T02:59:46.585Z,99905.47
2022-11-28T03:02:20.042Z,99904.63
2022-11-28T03:05:00.255Z,99906.31
2022-11-28T03:07:50.184Z,99904.63
2022-11-28T03:10:28.329Z,99892.56
2022-11-28T03:13:09.148Z,99890.00
2022-11-28T03:15:52.726Z,99893.47
2022-11-28T03:18:27.275Z,99886.53
2022-11-28T03:21:03.098Z,99890.06
2022-11-28T03:23:39.252Z,99891.72
2022-11-28T03:26:12.300Z,99893.47
2022-11-28T03:28:46.618Z,99890.91
2022-11-28T03:31:19.230Z,99881.41
2022-11-28T03:33:54.759Z,99879.75
2022-11-28T03:36:28.536Z,99872.91
2022-11-28T03:39:04.277Z,99878.06
2022-11-28T03:41:38.080Z,99864.28
2022-11-28T03:44:11.099Z,99858.31
2022-11-28T03:46:47.908Z,99866.00
2022-11-28T03:49:24.437Z,99868.59
2022-11-28T03:51:57.952Z,99859.13
2022-11-28T03:54:33.766Z,99860.84
2022-11-28T03:57:10.224Z,99856.53
2022-11-28T03:59:43.302Z,99859.13
2022-11-28T04:02:21.927Z,99855.63
2022-11-28T04:04:58.428Z,99850.56
2022-11-28T04:07:38.300Z,99847.16
2022-11-28T04:10:14.560Z,99853.09
2022-11-28T04:12:59.377Z,99844.50
2022-11-28T04:15:37.355Z,99840.25
2022-11-28T04:18:14.168Z,99845.41
2022-11-28T04:20:49.183Z,99834.31
2022-11-28T04:23:21.407Z,99842.84
2022-11-28T04:25:57.145Z,99831.69
2022-11-28T04:28:29.690Z,99838.56
2022-11-28T04:31:00.358Z,99832.59
2022-11-28T04:33:33.514Z,99830.84
2022-11-28T04:36:03.547Z,99825.69
2022-11-28T04:38:34.895Z,99829.97
2022-11-28T04:41:08.120Z,99813.69
2022-11-28T04:43:42.186Z,99825.72
2022-11-28T04:46:14.772Z,99820.59
2022-11-28T04:48:43.598Z,99815.44
2022-11-28T04:51:20.862Z,99823.16
2022-11-28T04:53:57.719Z,99818.88
2022-11-28T04:56:32.885Z,99812.91
2022-11-28T04:59:02.416Z,99814.63
2022-11-28T05:01:32.716Z,99823.25
2022-11-28T05:04:02.931Z,99824.13
2022-11-28T05:06:33.979Z,99817.25
2022-11-28T05:09:04.846Z,99822.34
2022-11-28T05:11:33.660Z,99818.88
2022-11-28T05:14:02.103Z,99813.84
2022-11-28T05:16:30.535Z,99813.03
2022-11-28T05:18:59.024Z,99814.75
2022-11-28T05:21:27.443Z,99823.25
2022-11-28T05:23:55.843Z,99822.38
2022-11-28T05:26:26.312Z,99815.59
2022-11-28T05:28:54.738Z,99818.94
2022-11-28T05:31:23.369Z,99821.53
2022-11-28T05:33:52.116Z,99816.41
2022-11-28T05:36:21.063Z,99814.66
2022-11-28T05:38:50.960Z,99818.06
2022-11-28T05:41:25.956Z,99813.00
2022-11-28T05:43:54.744Z,99807.03
2022-11-28T05:46:23.570Z,99803.66
2022-11-28T05:48:52.051Z,99799.34
2022-11-28T05:51:20.583Z,99809.53
2022-11-28T05:53:49.213Z,99802.69
2022-11-28T05:56:20.268Z,99812.13
2022-11-28T05:58:50.049Z,99808.78
2022-11-28T06:01:21.695Z,99807.97
2022-11-28T06:03:51.932Z,99793.38
2022-11-28T06:06:23.074Z,99809.69
2022-11-28T06:08:52.890Z,99800.22
2022-11-28T06:11:23.904Z,99793.38
2022-11-28T06:13:53.954Z,99799.34
2022-11-28T06:16:25.766Z,99812.22
2022-11-28T06:18:55.594Z,99801.06
2022-11-28T06:21:25.215Z,99799.34
2022-11-28T06:23:54.734Z,99807.88
2022-11-28T06:26:25.413Z,99802.78
2022-11-28T06:28:56.413Z,99797.63
2022-11-28T06:31:28.460Z,99792.47
2022-11-28T06:33:57.659Z,99802.75
2022-11-28T06:36:27.824Z,99794.19
2022-11-28T06:38:56.185Z,99797.59
2022-11-28T06:41:24.639Z,99797.59
2022-11-28T06:43:54.398Z,99800.22
2022-11-28T06:46:23.297Z,99795.03
2022-11-28T06:48:53.394Z,99787.31
2022-11-28T06:51:22.508Z,99794.25
2022-11-28T06:53:51.283Z,99791.66
2022-11-28T06:56:21.471Z,99799.31
2022-11-28T06:58:57.553Z,99800.16
2022-11-28T07:01:28.731Z,99791.59
2022-11-28T07:03:57.826Z,99799.31
2022-11-28T07:06:28.018Z,99802.75
2022-11-28T07:08:59.331Z,99807.84
2022-11-28T07:11:30.219Z,99819.88
2022-11-28T07:14:04.157Z,99820.78
2022-11-28T07:16:34.722Z,99826.78
2022-11-28T07:19:03.829Z,99815.56
2022-11-28T07:21:32.705Z,99824.91
2022-11-28T07:24:01.956Z,99814.66
2022-11-28T07:26:31.500Z,99820.63
2022-11-28T07:29:01.308Z,99827.56
2022-11-28T07:31:32.436Z,99824.97
2022-11-28T07:34:03.736Z,99819.91
2022-11-28T07:36:32.201Z,99825.09
2022-11-28T07:39:02.343Z,99826.69
2022-11-28T07:41:30.982Z,99830.09
2022-11-28T07:44:02.973Z,99827.63
2022-11-28T07:46:33.339Z,99821.72
2022-11-28T07:49:02.320Z,99821.69
2022-11-28T07:51:33.494Z,99824.28
2022-11-28T07:54:02.731Z,99826.91
2022-11-28T07:59:24.042Z,99824.44
2022-11-28T08:01:53.842Z,99829.53
2022-11-28T08:04:23.030Z,99830.44
2022-11-28T08:06:51.585Z,99829.56
2022-11-28T08:09:19.965Z,99829.53
2022-11-28T08:11:48.371Z,99829.53
2022-11-28T08:14:16.784Z,99825.22
2022-11-28T08:16:46.692Z,99820.94
2022-11-28T08:19:15.502Z,99822.66
2022-11-28T08:21:44.268Z,99822.69
2022-11-28T08:24:12.994Z,99828.69
2022-11-28T08:26:41.479Z,99819.28
2022-11-28T08:29:10.858Z,99823.72
2022-11-28T08:31:40.710Z,99830.66
2022-11-28T08:34:12.766Z,99832.28
2022-11-28T08:36:41.612Z,99828.81
2022-11-28T08:39:25.763Z,99824.66
2022-11-28T08:41:57.232Z,99825.47
2022-11-28T08:44:26.102Z,99822.00
2022-11-28T08:46:55.103Z,99830.53
2022-11-28T08:49:25.039Z,99820.25
2022-11-28T08:51:53.456Z,99814.22
2022-11-28T08:54:22.013Z,99812.47
2022-11-28T08:56:50.443Z,99812.47
2022-11-28T08:59:18.819Z,99809.06
2022-11-28T09:01:47.236Z,99811.69
2022-11-28T09:04:15.662Z,99816.88
2022-11-28T09:06:45.527Z,99808.22
2022-11-28T09:09:13.916Z,99808.16
2022-11-28T09:11:42.690Z,99813.34
2022-11-28T09:14:11.291Z,99809.91
2022-11-28T09:16:40.283Z,99826.25
2022-11-28T09:19:09.350Z,99834.03
2022-11-28T09:21:38.129Z,99832.38
2022-11-28T09:24:09.933Z,99834.16
2022-11-28T09:26:38.325Z,99836.72
2022-11-28T09:29:06.695Z,99833.28
2022-11-28T09:31:35.148Z,99830.78
2022-11-28T09:34:04.833Z,99835.91
2022-11-28T09:36:33.947Z,99838.50
2022-11-28T09:39:03.079Z,99835.91
2022-11-28T09:41:52.164Z,99828.19
2022-11-28T09:44:26.280Z,99825.69
2022-11-28T09:46:59.831Z,99823.84
2022-11-28T09:49:40.792Z,99820.41
2022-11-28T09:52:25.205Z,99804.94
2022-11-28T09:55:05.508Z,99811.78
2022-11-28T09:57:40.994Z,99811.81
2022-11-28T10:00:21.797Z,99806.72
2022-11-28T10:03:32.862Z,99805.00
2022-11-28T10:06:14.812Z,99808.44
2022-11-28T10:08:57.325Z,99803.28
2022-11-28T10:11:44.016Z,99801.56
2022-11-28T10:14:44.761Z,99804.16
2022-11-28T10:17:28.748Z,99805.03
2022-11-28T10:20:05.021Z,99805.91
2022-11-28T10:22:41.821Z,99803.38
2022-11-28T10:25:19.806Z,99808.56
2022-11-28T10:27:49.147Z,99796.53
2022-11-28T10:30:23.885Z,99792.25
2022-11-28T10:33:02.559Z,99797.41
2022-11-28T10:35:41.192Z,99786.25
2022-11-28T10:38:14.012Z,99801.72
2022-11-28T10:40:49.987Z,99793.97
2022-11-28T10:43:32.781Z,99793.13
2022-11-28T10:46:26.507Z,99787.97
2022-11-28T10:49:03.193Z,99788.81
2022-11-28T10:51:40.487Z,99789.69
2022-11-28T10:54:25.809Z,99781.06
2022-11-28T10:57:08.439Z,99779.34
2022-11-28T10:59:57.399Z,99780.22
2022-11-28T11:02:36.957Z,99787.06
2022-11-28T11:05:06.874Z,99778.47
2022-11-28T11:07:35.966Z,99781.06
2022-11-28T11:10:17.030Z,99773.34
2022-11-28T11:12:46.226Z,99767.34
2022-11-28T11:15:25.904Z,99767.31
2022-11-28T11:17:55.761Z,99758.72
2022-11-28T11:20:35.448Z,99761.28
2022-11-28T11:23:16.374Z,99765.56
2022-11-28T11:25:55.315Z,99765.56
2022-11-28T11:28:52.630Z,99761.28
2022-11-28T11:31:25.063Z,99765.59
2022-11-28T11:34:02.986Z,99757.81
2022-11-28T11:36:34.208Z,99751.78
2022-11-28T11:39:21.643Z,99755.22
2022-11-28T11:41:52.128Z,99756.97
2022-11-28T11:44:35.518Z,99750.09
2022-11-28T11:47:06.909Z,99749.19
2022-11-28T11:49:39.190Z,99747.44
2022-11-28T11:52:17.005Z,99746.50
2022-11-28T11:54:59.352Z,99748.16
2022-11-28T11:57:34.768Z,99748.16
2022-11-28T12:00:08.875Z,99748.94
2022-11-28T12:02:48.426Z,99757.63
2022-11-28T12:05:21.115Z,99761.03
2022-11-28T12:07:58.719Z,99746.38
2022-11-28T12:10:31.503Z,99759.22
2022-11-28T12:12:59.957Z,99758.13
2022-11-28T12:15:41.716Z,99763.50
2022-11-28T12:18:25.654Z,99765.28
2022-11-28T12:21:14.455Z,99762.69
2022-11-28T12:24:01.644Z,99747.22
2022-11-28T12:26:41.463Z,99752.34
2022-11-28T12:29:35.096Z,99750.66
2022-11-28T12:32:20.744Z,99748.91
2022-11-28T12:35:09.010Z,99748.09
2022-11-28T12:40:55.447Z,99739.50
2022-11-28T12:43:41.419Z,99734.34
2022-11-28T12:46:19.800Z,99735.16
2022-11-28T12:49:04.793Z,99735.22
2022-11-28T12:51:47.419Z,99743.81
2022-11-28T12:54:41.231Z,99734.34
2022-11-28T12:57:17.182Z,99718.88
2022-11-28T12:59:55.351Z,99726.59
2022-11-28T13:02:34.245Z,99732.63
2022-11-28T13:05:22.313Z,99731.75
2022-11-28T13:08:16.998Z,99722.28
2022-11-28T13:10:53.025Z,99725.72
2022-11-28T13:13:26.764Z,99729.16
2022-11-28T13:16:04.527Z,99719.72
2022-11-28T13:18:42.645Z,99725.69
2022-11-28T13:21:25.864Z,99722.28
2022-11-28T13:24:06.868Z,99718.88
2022-11-28T13:26:49.898Z,99715.47
2022-11-28T13:29:28.546Z,99729.22
2022-11-28T13:32:08.225Z,99730.91
2022-11-28T13:34:37.308Z,99733.53
2022-11-28T13:40:17.901Z,99732.72
2022-11-28T13:43:13.672Z,99723.25
2022-11-28T13:45:44.568Z,99722.38
2022-11-28T13:51:42.182Z,99720.66
2022-11-28T13:54:45.582Z,99714.63
2022-11-28T13:57:37.953Z,99712.91
2022-11-28T14:00:23.767Z,99710.34
2022-11-28T14:02:55.839Z,99710.34
2022-11-28T14:05:35.605Z,99701.75
2022-11-28T14:08:05.652Z,99714.66
2022-11-28T14:10:48.370Z,99709.50
2022-11-28T14:13:38.541Z,99703.53
2022-11-28T14:16:26.809Z,99718.09
2022-11-28T14:19:14.007Z,99722.41
2022-11-28T14:22:01.729Z,99719.00
2022-11-28T14:24:55.589Z,99725.84
2022-11-28T14:27:27.483Z,99718.97
2022-11-28T14:29:58.085Z,99725.88
2022-11-28T14:32:34.753Z,99723.28
2022-11-28T14:35:08.354Z,99725.84
2022-11-28T14:37:58.926Z,99720.75
2022-11-28T14:41:03.065Z,99723.41
2022-11-28T14:43:33.761Z,99725.13
2022-11-28T14:46:32.409Z,99719.97
2022-11-28T14:49:23.213Z,99720.84
2022-11-28T14:52:38.577Z,99732.00
2022-11-28T14:55:20.600Z,99725.13
2022-11-28T14:58:00.857Z,99731.13
2022-11-28T15:00:35.311Z,99729.38
2022-11-28T15:03:24.506Z,99732.00
2022-11-28T15:05:57.339Z,99729.41
2022-11-28T15:08:56.850Z,99732.88
2022-11-28T15:11:43.527Z,99735.47
2022-11-28T15:14:22.371Z,99741.47
2022-11-28T15:16:55.475Z,99734.66
2022-11-28T15:19:28.688Z,99728.63
2022-11-28T15:21:59.087Z,99731.19
2022-11-28T15:24:31.022Z,99730.34
2022-11-28T15:27:18.056Z,99738.06
2022-11-28T15:29:56.285Z,99736.38
2022-11-28T15:32:26.332Z,99738.09
2022-11-28T15:35:01.084Z,99741.53
2022-11-28T15:37:34.060Z,99734.69
2022-11-28T15:40:06.160Z,99744.09
2022-11-28T15:42:37.848Z,99739.84
2022-11-28T15:45:13.486Z,99742.41
2022-11-28T15:47:42.161Z,99746.72
2022-11-28T15:50:18.320Z,99745.84
2022-11-28T15:52:58.185Z,99742.41
2022-11-28T15:55:30.697Z,99743.28
2022-11-28T15:58:14.078Z,99744.13
2022-11-28T16:00:44.287Z,99744.13
2022-11-28T16:03:18.332Z,99749.28
2022-11-28T16:05:48.617Z,99751.84
2022-11-28T16:08:29.460Z,99743.22
2022-11-28T16:10:59.058Z,99744.94
2022-11-28T16:13:28.529Z,99747.56
2022-11-28T16:15:58.526Z,99746.66
2022-11-28T16:18:28.778Z,99742.34
2022-11-28T16:20:58.529Z,99745.78
2022-11-28T16:23:31.890Z,99755.22
2022-11-28T16:26:05.279Z,99751.78
2022-11-28T16:28:37.515Z,99752.66
2022-11-28T16:31:12.792Z,99754.38
2022-11-28T16:33:43.300Z,99750.06
2022-11-28T16:36:20.421Z,99763.81
2022-11-28T16:38:53.439Z,99763.81
2022-11-28T16:41:25.465Z,99756.91
2022-11-28T16:43:57.147Z,99763.78
2022-11-28T16:46:30.090Z,99760.38
2022-11-28T16:49:00.152Z,99763.78
2022-11-28T16:51:41.379Z,99762.09
2022-11-28T16:54:37.911Z,99767.25
2022-11-28T16:57:14.575Z,99770.69
2022-11-28T16:59:44.499Z,99758.66
2022-11-28T17:02:18.539Z,99764.66
2022-11-28T17:04:48.284Z,99762.91
2022-11-28T17:07:24.214Z,99758.59
2022-11-28T17:09:54.134Z,99767.22
2022-11-28T17:12:27.638Z,99767.22
2022-11-28T17:14:58.432Z,99763.78
2022-11-28T17:17:28.357Z,99766.34
2022-11-28T17:19:56.787Z,99763.78
2022-11-28T17:22:29.596Z,99772.38
2022-11-28T17:25:02.956Z,99773.25
2022-11-28T17:27:31.356Z,99781.00
2022-11-28T17:29:59.713Z,99774.09
2022-11-28T17:32:28.098Z,99775.84
2022-11-28T17:34:56.466Z,99781.00
2022-11-28T17:37:24.894Z,99784.44
2022-11-28T17:40:07.106Z,99778.41
2022-11-28T17:42:38.682Z,99775.84
2022-11-28T17:45:14.674Z,99779.28
2022-11-28T17:47:44.375Z,99781.84
2022-11-28T17:50:13.010Z,99780.09
2022-11-28T17:52:41.389Z,99775.81
2022-11-28T17:55:09.972Z,99775.81
2022-11-28T17:57:40.068Z,99773.19
2022-11-28T18:00:17.682Z,99774.94
2022-11-28T18:02:46.746Z,99775.81
2022-11-28T18:05:15.341Z,99769.78
2022-11-28T18:07:43.954Z,99773.19
2022-11-28T18:10:13.683Z,99768.94
2022-11-28T18:12:43.656Z,99779.22
2022-11-28T18:15:12.407Z,99778.41
2022-11-28T18:17:40.842Z,99774.97
2022-11-28T18:20:11.226Z,99769.81
2022-11-28T18:22:39.737Z,99774.94
2022-11-28T18:25:10.105Z,99774.94
2022-11-28T18:27:39.087Z,99777.56
2022-11-28T18:30:10.985Z,99772.38
2022-11-28T18:32:39.546Z,99784.41
2022-11-28T18:35:10.131Z,99774.13
2022-11-28T18:37:39.289Z,99775.84
2022-11-28T18:40:09.767Z,99780.97
2022-11-28T18:42:39.070Z,99784.41
2022-11-28T18:45:12.191Z,99786.13
2022-11-28T18:47:40.687Z,99778.41
2022-11-28T18:50:11.368Z,99784.44
2022-11-28T18:52:39.815Z,99783.59
2022-11-28T18:55:09.430Z,99781.00
2022-11-28T18:57:38.170Z,99784.44
2022-11-28T19:00:11.036Z,99792.13
2022-11-28T19:02:39.567Z,99796.44
2022-11-28T19:05:09.634Z,99796.44
2022-11-28T19:07:38.066Z,99792.13
2022-11-28T19:10:08.679Z,99797.31
2022-11-28T19:12:38.026Z,99793.00
2022-11-28T19:15:07.850Z,99787.84
2022-11-28T19:17:38.036Z,99797.31
2022-11-28T19:20:09.929Z,99796.47
2022-11-28T19:22:38.406Z,99799.91
2022-11-28T19:25:08.959Z,99792.16
2022-11-28T19:27:37.612Z,99791.31
2022-11-28T19:30:08.093Z,99793.88
2022-11-28T19:32:37.830Z,99789.56
2022-11-28T19:35:07.496Z,99787.84
2022-11-28T19:37:35.930Z,99783.56
2022-11-28T19:40:04.847Z,99789.56
2022-11-28T19:42:33.874Z,99791.31
2022-11-28T19:45:02.383Z,99795.63
2022-11-28T19:47:31.263Z,99787.03
2022-11-28T19:50:01.017Z,99799.97
2022-11-28T19:52:29.472Z,99805.09
2022-11-28T19:54:58.004Z,99799.97
2022-11-28T19:57:26.782Z,99809.41
2022-11-28T19:59:55.234Z,99799.09
2022-11-28T20:02:23.832Z,99802.56
2022-11-28T20:04:52.320Z,99799.09
2022-11-28T20:07:22.233Z,99807.69
2022-11-28T20:09:51.087Z,99804.22
2022-11-28T20:12:19.563Z,99804.22
2022-11-28T20:14:47.966Z,99810.25
2022-11-28T20:17:16.315Z,99811.13
2022-11-28T20:19:46.449Z,99811.97
2022-11-28T20:22:14.915Z,99811.09
2022-11-28T20:24:44.668Z,99823.16
2022-11-28T20:27:13.209Z,99818.88
2022-11-28T20:29:41.920Z,99822.34
2022-11-28T20:32:10.584Z,99817.16
2022-11-28T20:34:39.109Z,99827.47
2022-11-28T20:37:07.487Z,99830.91
2022-11-28T20:39:35.954Z,99829.19
2022-11-28T20:42:05.951Z,99829.19
2022-11-28T20:44:34.324Z,99833.50
2022-11-28T20:47:02.761Z,99835.22
2022-11-28T20:49:31.108Z,99836.09
2022-11-28T20:51:59.487Z,99838.66
2022-11-28T20:54:28.089Z,99840.38
2022-11-28T20:57:20.395Z,99841.25
2022-11-28T20:59:46.298Z,99831.78
2022-11-28T21:02:14.895Z,99831.75
2022-11-28T21:04:43.236Z,99836.09
2022-11-28T21:07:11.744Z,99837.78
2022-11-28T21:09:40.098Z,99840.38
2022-11-28T21:12:09.253Z,99840.38
2022-11-28T21:14:37.613Z,99839.50
2022-11-28T21:17:07.387Z,99842.09
2022-11-28T21:19:35.769Z,99836.06
2022-11-28T21:22:04.251Z,99833.47
2022-11-28T21:24:32.665Z,99834.34
2022-11-28T21:27:01.047Z,99841.22
2022-11-28T21:29:29.399Z,99840.38
2022-11-28T21:31:57.816Z,99847.22
2022-11-28T21:34:27.581Z,99836.91
2022-11-28T21:36:56.266Z,99848.94
2022-11-28T21:39:24.598Z,99844.66
2022-11-28T21:41:53.037Z,99851.50
2022-11-28T21:44:21.728Z,99845.50
2022-11-28T21:46:50.888Z,99837.75
2022-11-28T21:49:19.469Z,99830.91
2022-11-28T21:51:49.257Z,99837.75
2022-11-28T21:54:18.209Z,99834.34
2022-11-28T21:56:47.374Z,99842.06
2022-11-28T21:59:16.388Z,99831.78
2022-11-28T22:01:45.959Z,99834.34
2022-11-28T22:04:14.615Z,99837.78
2022-11-28T22:06:43.293Z,99836.06
2022-11-28T22:09:13.138Z,99836.91
2022-11-28T22:11:41.750Z,99837.78
2022-11-28T22:14:10.738Z,99836.94
2022-11-28T22:16:39.681Z,99836.06
2022-11-28T22:19:08.091Z,99841.19
2022-11-28T22:21:55.567Z,99839.50
2022-11-28T22:24:26.329Z,99853.25
2022-11-28T22:26:56.485Z,99844.66
2022-11-28T22:29:25.687Z,99844.66
2022-11-28T22:31:55.279Z,99848.94
2022-11-28T22:34:24.727Z,99851.50
2022-11-28T22:36:53.272Z,99848.09
2022-11-28T22:39:22.839Z,99846.34
2022-11-28T22:41:52.631Z,99846.38
2022-11-28T22:44:22.223Z,99855.81
2022-11-28T22:46:50.839Z,99854.97
2022-11-28T22:49:20.126Z,99855.81
2022-11-28T22:51:49.161Z,99851.50
2022-11-28T22:54:17.689Z,99857.53
2022-11-28T22:56:46.059Z,99860.94
2022-11-28T22:59:17.564Z,99855.78
2022-11-28T23:01:45.983Z,99853.22
2022-11-28T23:04:14.535Z,99857.53
2022-11-28T23:06:43.538Z,99860.09
2022-11-28T23:09:14.935Z,99861.81
2022-11-28T23:11:44.492Z,99859.22
2022-11-28T23:14:15.324Z,99864.38
2022-11-28T23:16:45.662Z,99860.94
2022-11-28T23:19:17.158Z,99864.38
2022-11-28T23:21:48.951Z,99862.69
2022-11-28T23:24:20.478Z,99860.94
2022-11-28T23:26:51.290Z,99861.81
2022-11-28T23:29:21.808Z,99868.69
2022-11-28T23:31:50.869Z,99865.22
2022-11-28T23:34:19.407Z,99867.81
2022-11-28T23:36:49.313Z,99870.38
2022-11-28T23:39:20.468Z,99866.94
2022-11-28T23:41:49.820Z,99869.50
2022-11-28T23:44:21.126Z,99863.50
2022-11-28T23:46:50.054Z,99866.91
2022-11-28T23:49:18.777Z,99862.63
2022-11-28T23:51:47.265Z,99856.66
2022-11-28T23:54:15.786Z,99854.09
2022-11-28T23:56:44.761Z,99856.66
2022-11-28T23:59:14.080Z,99858.38
